sensor_id;sensor_type;location;lat;lon;timestamp;P1;durP1;ratioP1;P2;durP2;ratioP2
22606;SDS011;11470;20.968;105.834;2023-01-23T00:00:46;217.50;;;118.73;;
22606;SDS011;11470;20.968;105.834;2023-01-23T00:05:57;203.70;;;113.57;;
22606;SDS011;11470;20.968;105.834;2023-01-23T00:11:06;185.20;;;102.57;;
22606;SDS011;11470;20.968;105.834;2023-01-23T00:16:15;227.48;;;123.15;;
22606;SDS011;11470;20.968;105.834;2023-01-23T00:21:22;227.63;;;121.40;;
22606;SDS011;11470;20.968;105.834;2023-01-23T00:26:29;236.30;;;125.85;;
22606;SDS011;11470;20.968;105.834;2023-01-23T00:31:38;222.55;;;117.40;;
22606;SDS011;11470;20.968;105.834;2023-01-23T00:36:44;216.27;;;111.53;;
22606;SDS011;11470;20.968;105.834;2023-01-23T00:41:49;208.93;;;108.87;;
22606;SDS011;11470;20.968;105.834;2023-01-23T00:46:56;213.83;;;113.80;;
22606;SDS011;11470;20.968;105.834;2023-01-23T00:57:06;164.95;;;89.60;;
22606;SDS011;11470;20.968;105.834;2023-01-23T01:02:14;149.82;;;79.78;;
22606;SDS011;11470;20.968;105.834;2023-01-23T01:07:20;128.80;;;74.00;;
22606;SDS011;11470;20.968;105.834;2023-01-23T01:12:26;140.37;;;77.07;;
22606;SDS011;11470;20.968;105.834;2023-01-23T01:17:31;176.55;;;92.50;;
22606;SDS011;11470;20.968;105.834;2023-01-23T01:22:37;155.07;;;81.50;;
22606;SDS011;11470;20.968;105.834;2023-01-23T01:27:43;150.73;;;80.60;;
22606;SDS011;11470;20.968;105.834;2023-01-23T01:32:48;112.03;;;63.00;;
22606;SDS011;11470;20.968;105.834;2023-01-23T01:37:54;119.05;;;64.95;;
22606;SDS011;11470;20.968;105.834;2023-01-23T01:43:03;105.63;;;57.10;;
22606;SDS011;11470;20.968;105.834;2023-01-23T01:48:10;108.13;;;58.53;;
22606;SDS011;11470;20.968;105.834;2023-01-23T01:53:15;88.95;;;51.70;;
22606;SDS011;11470;20.968;105.834;2023-01-23T01:58:22;85.87;;;52.10;;
22606;SDS011;11470;20.968;105.834;2023-01-23T02:03:28;75.22;;;45.65;;
22606;SDS011;11470;20.968;105.834;2023-01-23T02:08:37;72.87;;;42.83;;
22606;SDS011;11470;20.968;105.834;2023-01-23T02:13:45;66.03;;;39.85;;
22606;SDS011;11470;20.968;105.834;2023-01-23T02:18:52;81.38;;;48.67;;
22606;SDS011;11470;20.968;105.834;2023-01-23T02:24:10;61.20;;;38.28;;
22606;SDS011;11470;20.968;105.834;2023-01-23T02:29:17;73.68;;;43.65;;
22606;SDS011;11470;20.968;105.834;2023-01-23T02:34:28;64.68;;;37.95;;
22606;SDS011;11470;20.968;105.834;2023-01-23T02:44:41;64.65;;;37.88;;
22606;SDS011;11470;20.968;105.834;2023-01-23T02:49:49;72.45;;;40.50;;
22606;SDS011;11470;20.968;105.834;2023-01-23T02:54:55;65.97;;;39.92;;
22606;SDS011;11470;20.968;105.834;2023-01-23T03:00:02;70.70;;;41.60;;
22606;SDS011;11470;20.968;105.834;2023-01-23T03:05:24;86.60;;;50.35;;
22606;SDS011;11470;20.968;105.834;2023-01-23T03:10:31;76.20;;;44.63;;
22606;SDS011;11470;20.968;105.834;2023-01-23T03:15:37;73.90;;;45.55;;
22606;SDS011;11470;20.968;105.834;2023-01-23T03:20:45;103.97;;;59.75;;
22606;SDS011;11470;20.968;105.834;2023-01-23T03:25:50;73.87;;;43.37;;
22606;SDS011;11470;20.968;105.834;2023-01-23T03:31:04;83.30;;;46.70;;
22606;SDS011;11470;20.968;105.834;2023-01-23T03:36:10;88.40;;;50.47;;
22606;SDS011;11470;20.968;105.834;2023-01-23T03:46:35;64.85;;;39.75;;
22606;SDS011;11470;20.968;105.834;2023-01-23T03:51:44;67.00;;;39.85;;
22606;SDS011;11470;20.968;105.834;2023-01-23T03:56:51;81.95;;;47.25;;
22606;SDS011;11470;20.968;105.834;2023-01-23T04:02:19;63.13;;;39.28;;
22606;SDS011;11470;20.968;105.834;2023-01-23T04:12:30;60.45;;;37.35;;
22606;SDS011;11470;20.968;105.834;2023-01-23T04:17:36;74.22;;;39.80;;
22606;SDS011;11470;20.968;105.834;2023-01-23T04:22:44;64.78;;;39.95;;
22606;SDS011;11470;20.968;105.834;2023-01-23T04:27:50;69.57;;;40.00;;
22606;SDS011;11470;20.968;105.834;2023-01-23T04:32:56;69.68;;;41.05;;
22606;SDS011;11470;20.968;105.834;2023-01-23T04:38:02;62.58;;;39.63;;
22606;SDS011;11470;20.968;105.834;2023-01-23T04:43:11;56.33;;;34.67;;
22606;SDS011;11470;20.968;105.834;2023-01-23T04:48:20;64.30;;;38.90;;
22606;SDS011;11470;20.968;105.834;2023-01-23T04:53:28;56.80;;;35.75;;
22606;SDS011;11470;20.968;105.834;2023-01-23T04:58:35;71.47;;;41.97;;
22606;SDS011;11470;20.968;105.834;2023-01-23T05:03:43;66.70;;;42.22;;
22606;SDS011;11470;20.968;105.834;2023-01-23T05:08:49;59.30;;;37.67;;
22606;SDS011;11470;20.968;105.834;2023-01-23T05:14:01;65.93;;;40.63;;
22606;SDS011;11470;20.968;105.834;2023-01-23T05:19:08;66.13;;;40.60;;
22606;SDS011;11470;20.968;105.834;2023-01-23T05:29:20;66.65;;;39.47;;
22606;SDS011;11470;20.968;105.834;2023-01-23T05:34:34;65.90;;;40.83;;
22606;SDS011;11470;20.968;105.834;2023-01-23T05:39:54;66.82;;;40.50;;
22606;SDS011;11470;20.968;105.834;2023-01-23T05:45:13;65.75;;;41.63;;
22606;SDS011;11470;20.968;105.834;2023-01-23T05:50:19;66.75;;;39.80;;
22606;SDS011;11470;20.968;105.834;2023-01-23T05:55:28;90.85;;;57.00;;
22606;SDS011;11470;20.968;105.834;2023-01-23T06:00:34;94.20;;;57.95;;
22606;SDS011;11470;20.968;105.834;2023-01-23T06:05:59;131.48;;;76.78;;
22606;SDS011;11470;20.968;105.834;2023-01-23T06:11:06;94.53;;;60.72;;
22606;SDS011;11470;20.968;105.834;2023-01-23T06:16:15;105.18;;;63.90;;
22606;SDS011;11470;20.968;105.834;2023-01-23T06:21:22;103.50;;;61.10;;
22606;SDS011;11470;20.968;105.834;2023-01-23T06:26:28;92.10;;;54.35;;
22606;SDS011;11470;20.968;105.834;2023-01-23T06:31:34;162.50;;;94.40;;
22606;SDS011;11470;20.968;105.834;2023-01-23T06:36:41;118.03;;;69.47;;
22606;SDS011;11470;20.968;105.834;2023-01-23T06:41:47;88.90;;;53.83;;
22606;SDS011;11470;20.968;105.834;2023-01-23T06:46:56;86.43;;;52.92;;
22606;SDS011;11470;20.968;105.834;2023-01-23T06:52:02;166.70;;;92.60;;
22606;SDS011;11470;20.968;105.834;2023-01-23T07:02:14;86.15;;;50.80;;
22606;SDS011;11470;20.968;105.834;2023-01-23T07:07:23;71.50;;;45.30;;
22606;SDS011;11470;20.968;105.834;2023-01-23T07:12:29;103.77;;;61.90;;
22606;SDS011;11470;20.968;105.834;2023-01-23T07:17:36;103.13;;;59.35;;
22606;SDS011;11470;20.968;105.834;2023-01-23T07:22:41;86.55;;;50.65;;
22606;SDS011;11470;20.968;105.834;2023-01-23T07:27:48;75.40;;;46.05;;
22606;SDS011;11470;20.968;105.834;2023-01-23T07:32:54;83.00;;;51.78;;
22606;SDS011;11470;20.968;105.834;2023-01-23T07:38:01;86.97;;;51.10;;
22606;SDS011;11470;20.968;105.834;2023-01-23T07:43:07;82.38;;;47.85;;
22606;SDS011;11470;20.968;105.834;2023-01-23T07:48:12;65.73;;;40.27;;
22606;SDS011;11470;20.968;105.834;2023-01-23T07:53:18;67.55;;;41.03;;
22606;SDS011;11470;20.968;105.834;2023-01-23T07:58:24;68.70;;;41.17;;
22606;SDS011;11470;20.968;105.834;2023-01-23T08:03:29;74.17;;;43.80;;
22606;SDS011;11470;20.968;105.834;2023-01-23T08:08:35;66.68;;;41.25;;
22606;SDS011;11470;20.968;105.834;2023-01-23T08:13:40;65.07;;;40.33;;
22606;SDS011;11470;20.968;105.834;2023-01-23T08:18:46;64.47;;;37.60;;
22606;SDS011;11470;20.968;105.834;2023-01-23T08:23:54;64.22;;;38.60;;
22606;SDS011;11470;20.968;105.834;2023-01-23T08:29:00;91.53;;;50.57;;
22606;SDS011;11470;20.968;105.834;2023-01-23T08:34:05;81.68;;;48.67;;
22606;SDS011;11470;20.968;105.834;2023-01-23T08:39:11;78.63;;;46.05;;
22606;SDS011;11470;20.968;105.834;2023-01-23T08:44:16;81.32;;;45.92;;
22606;SDS011;11470;20.968;105.834;2023-01-23T08:49:23;73.10;;;42.78;;
22606;SDS011;11470;20.968;105.834;2023-01-23T08:54:28;69.10;;;38.97;;
22606;SDS011;11470;20.968;105.834;2023-01-23T08:59:34;72.87;;;41.00;;
22606;SDS011;11470;20.968;105.834;2023-01-23T09:04:39;62.40;;;40.58;;
22606;SDS011;11470;20.968;105.834;2023-01-23T09:09:45;75.33;;;43.40;;
22606;SDS011;11470;20.968;105.834;2023-01-23T09:14:51;71.15;;;42.47;;
22606;SDS011;11470;20.968;105.834;2023-01-23T09:19:56;71.90;;;42.03;;
22606;SDS011;11470;20.968;105.834;2023-01-23T09:25:03;72.22;;;43.05;;
22606;SDS011;11470;20.968;105.834;2023-01-23T09:30:09;78.97;;;45.37;;
22606;SDS011;11470;20.968;105.834;2023-01-23T09:35:14;65.90;;;41.20;;
22606;SDS011;11470;20.968;105.834;2023-01-23T09:40:23;66.47;;;41.33;;
22606;SDS011;11470;20.968;105.834;2023-01-23T09:45:29;69.90;;;40.45;;
22606;SDS011;11470;20.968;105.834;2023-01-23T09:50:36;64.90;;;39.08;;
22606;SDS011;11470;20.968;105.834;2023-01-23T09:55:58;64.35;;;38.95;;
22606;SDS011;11470;20.968;105.834;2023-01-23T10:01:08;59.25;;;38.60;;
22606;SDS011;11470;20.968;105.834;2023-01-23T10:16:52;63.07;;;37.83;;
22606;SDS011;11470;20.968;105.834;2023-01-23T10:27:33;69.63;;;40.78;;
22606;SDS011;11470;20.968;105.834;2023-01-23T10:32:45;62.53;;;37.20;;
22606;SDS011;11470;20.968;105.834;2023-01-23T10:37:59;65.63;;;37.20;;
22606;SDS011;11470;20.968;105.834;2023-01-23T10:43:10;60.85;;;37.90;;
22606;SDS011;11470;20.968;105.834;2023-01-23T10:54:14;62.13;;;36.17;;
22606;SDS011;11470;20.968;105.834;2023-01-23T10:59:52;66.53;;;40.00;;
22606;SDS011;11470;20.968;105.834;2023-01-23T11:04:59;61.05;;;39.10;;
22606;SDS011;11470;20.968;105.834;2023-01-23T11:15:27;68.93;;;41.03;;
22606;SDS011;11470;20.968;105.834;2023-01-23T11:20:37;67.43;;;40.42;;
22606;SDS011;11470;20.968;105.834;2023-01-23T11:25:44;66.85;;;41.05;;
22606;SDS011;11470;20.968;105.834;2023-01-23T11:41:28;61.55;;;37.70;;
22606;SDS011;11470;20.968;105.834;2023-01-23T11:51:52;62.75;;;38.30;;
22606;SDS011;11470;20.968;105.834;2023-01-23T12:18:23;71.63;;;41.35;;
22606;SDS011;11470;20.968;105.834;2023-01-23T12:24:11;63.28;;;38.45;;
22606;SDS011;11470;20.968;105.834;2023-01-23T12:34:25;64.95;;;37.88;;
22606;SDS011;11470;20.968;105.834;2023-01-23T12:44:48;65.30;;;37.65;;
22606;SDS011;11470;20.968;105.834;2023-01-23T12:50:13;61.47;;;37.58;;
22606;SDS011;11470;20.968;105.834;2023-01-23T12:55:24;53.33;;;30.45;;
22606;SDS011;11470;20.968;105.834;2023-01-23T13:06:05;88.18;;;47.95;;
22606;SDS011;11470;20.968;105.834;2023-01-23T13:16:53;68.05;;;37.67;;
22606;SDS011;11470;20.968;105.834;2023-01-23T13:32:45;52.15;;;27.58;;
22606;SDS011;11470;20.968;105.834;2023-01-23T13:37:53;64.07;;;34.92;;
22606;SDS011;11470;20.968;105.834;2023-01-23T13:43:03;58.47;;;30.42;;
22606;SDS011;11470;20.968;105.834;2023-01-23T13:48:44;63.47;;;27.45;;
22606;SDS011;11470;20.968;105.834;2023-01-23T13:54:29;58.22;;;29.70;;
22606;SDS011;11470;20.968;105.834;2023-01-23T14:00:11;67.68;;;33.60;;
22606;SDS011;11470;20.968;105.834;2023-01-23T14:05:31;59.85;;;32.55;;
22606;SDS011;11470;20.968;105.834;2023-01-23T14:10:53;74.15;;;40.67;;
22606;SDS011;11470;20.968;105.834;2023-01-23T14:16:14;71.60;;;37.10;;
22606;SDS011;11470;20.968;105.834;2023-01-23T14:21:47;56.00;;;29.42;;
22606;SDS011;11470;20.968;105.834;2023-01-23T14:27:05;70.72;;;35.13;;
22606;SDS011;11470;20.968;105.834;2023-01-23T14:32:23;57.25;;;29.08;;
22606;SDS011;11470;20.968;105.834;2023-01-23T14:37:32;68.53;;;33.03;;
22606;SDS011;11470;20.968;105.834;2023-01-23T14:42:44;77.47;;;40.00;;
22606;SDS011;11470;20.968;105.834;2023-01-23T14:47:55;70.85;;;37.38;;
22606;SDS011;11470;20.968;105.834;2023-01-23T14:53:12;52.28;;;26.15;;
22606;SDS011;11470;20.968;105.834;2023-01-23T14:58:21;56.38;;;26.90;;
22606;SDS011;11470;20.968;105.834;2023-01-23T15:03:36;64.78;;;32.83;;
22606;SDS011;11470;20.968;105.834;2023-01-23T15:08:51;57.17;;;26.15;;
22606;SDS011;11470;20.968;105.834;2023-01-23T15:14:02;50.42;;;24.20;;
22606;SDS011;11470;20.968;105.834;2023-01-23T15:19:21;54.92;;;26.33;;
22606;SDS011;11470;20.968;105.834;2023-01-23T15:24:29;50.47;;;21.55;;
22606;SDS011;11470;20.968;105.834;2023-01-23T15:29:39;74.88;;;36.40;;
22606;SDS011;11470;20.968;105.834;2023-01-23T15:34:56;58.83;;;29.00;;
22606;SDS011;11470;20.968;105.834;2023-01-23T15:40:13;63.30;;;30.33;;
22606;SDS011;11470;20.968;105.834;2023-01-23T15:45:19;49.47;;;22.10;;
22606;SDS011;11470;20.968;105.834;2023-01-23T15:50:25;50.47;;;23.10;;
22606;SDS011;11470;20.968;105.834;2023-01-23T15:55:34;68.82;;;35.47;;
22606;SDS011;11470;20.968;105.834;2023-01-23T16:00:41;74.60;;;32.63;;
22606;SDS011;11470;20.968;105.834;2023-01-23T16:05:51;52.67;;;21.05;;
22606;SDS011;11470;20.968;105.834;2023-01-23T16:11:01;62.67;;;28.75;;
22606;SDS011;11470;20.968;105.834;2023-01-23T16:16:20;62.88;;;26.80;;
22606;SDS011;11470;20.968;105.834;2023-01-23T16:21:28;57.83;;;27.17;;
22606;SDS011;11470;20.968;105.834;2023-01-23T16:26:35;53.38;;;27.40;;
22606;SDS011;11470;20.968;105.834;2023-01-23T16:31:41;57.27;;;30.00;;
22606;SDS011;11470;20.968;105.834;2023-01-23T16:36:47;49.72;;;22.05;;
22606;SDS011;11470;20.968;105.834;2023-01-23T16:41:54;49.42;;;24.13;;
22606;SDS011;11470;20.968;105.834;2023-01-23T16:46:59;43.70;;;18.27;;
22606;SDS011;11470;20.968;105.834;2023-01-23T16:52:05;50.00;;;24.87;;
22606;SDS011;11470;20.968;105.834;2023-01-23T16:57:12;39.33;;;17.67;;
22606;SDS011;11470;20.968;105.834;2023-01-23T17:02:21;40.92;;;19.38;;
22606;SDS011;11470;20.968;105.834;2023-01-23T17:07:33;44.28;;;22.42;;
22606;SDS011;11470;20.968;105.834;2023-01-23T17:12:39;32.63;;;17.40;;
22606;SDS011;11470;20.968;105.834;2023-01-23T17:17:45;33.67;;;16.70;;
22606;SDS011;11470;20.968;105.834;2023-01-23T17:22:51;44.97;;;21.47;;
22606;SDS011;11470;20.968;105.834;2023-01-23T17:27:56;36.28;;;16.70;;
22606;SDS011;11470;20.968;105.834;2023-01-23T17:33:28;44.42;;;25.50;;
22606;SDS011;11470;20.968;105.834;2023-01-23T17:38:34;44.42;;;23.73;;
22606;SDS011;11470;20.968;105.834;2023-01-23T17:43:40;36.90;;;20.80;;
22606;SDS011;11470;20.968;105.834;2023-01-23T17:48:51;36.72;;;16.73;;
22606;SDS011;11470;20.968;105.834;2023-01-23T17:53:57;40.57;;;20.93;;
22606;SDS011;11470;20.968;105.834;2023-01-23T17:59:02;33.03;;;17.87;;
22606;SDS011;11470;20.968;105.834;2023-01-23T18:04:17;34.90;;;14.40;;
22606;SDS011;11470;20.968;105.834;2023-01-23T18:09:23;39.13;;;20.45;;
22606;SDS011;11470;20.968;105.834;2023-01-23T18:14:30;29.20;;;15.40;;
22606;SDS011;11470;20.968;105.834;2023-01-23T18:19:40;33.42;;;18.23;;
22606;SDS011;11470;20.968;105.834;2023-01-23T18:24:46;32.33;;;16.73;;
22606;SDS011;11470;20.968;105.834;2023-01-23T18:30:10;37.70;;;17.17;;
22606;SDS011;11470;20.968;105.834;2023-01-23T18:45:37;35.50;;;16.73;;
22606;SDS011;11470;20.968;105.834;2023-01-23T18:50:45;34.67;;;19.10;;
22606;SDS011;11470;20.968;105.834;2023-01-23T19:07:22;28.77;;;14.52;;
22606;SDS011;11470;20.968;105.834;2023-01-23T19:28:50;28.95;;;15.02;;
22606;SDS011;11470;20.968;105.834;2023-01-23T19:33:57;25.52;;;14.07;;
22606;SDS011;11470;20.968;105.834;2023-01-23T19:44:13;18.90;;;11.88;;
22606;SDS011;11470;20.968;105.834;2023-01-23T19:49:18;24.10;;;11.98;;
22606;SDS011;11470;20.968;105.834;2023-01-23T19:54:24;23.08;;;12.63;;
22606;SDS011;11470;20.968;105.834;2023-01-23T19:59:30;21.00;;;10.98;;
22606;SDS011;11470;20.968;105.834;2023-01-23T20:04:35;25.10;;;11.40;;
22606;SDS011;11470;20.968;105.834;2023-01-23T20:09:41;15.30;;;8.77;;
22606;SDS011;11470;20.968;105.834;2023-01-23T20:14:46;21.55;;;10.93;;
22606;SDS011;11470;20.968;105.834;2023-01-23T20:19:51;18.65;;;12.45;;
22606;SDS011;11470;20.968;105.834;2023-01-23T20:24:57;17.75;;;10.32;;
22606;SDS011;11470;20.968;105.834;2023-01-23T20:30:03;16.80;;;9.90;;
22606;SDS011;11470;20.968;105.834;2023-01-23T20:35:10;17.45;;;9.48;;
22606;SDS011;11470;20.968;105.834;2023-01-23T20:40:15;10.70;;;7.30;;
22606;SDS011;11470;20.968;105.834;2023-01-23T20:45:21;15.37;;;8.53;;
22606;SDS011;11470;20.968;105.834;2023-01-23T20:50:28;17.02;;;10.32;;
22606;SDS011;11470;20.968;105.834;2023-01-23T20:55:34;21.60;;;9.67;;
22606;SDS011;11470;20.968;105.834;2023-01-23T21:00:39;16.70;;;10.70;;
22606;SDS011;11470;20.968;105.834;2023-01-23T21:05:44;16.50;;;10.88;;
22606;SDS011;11470;20.968;105.834;2023-01-23T21:10:50;19.50;;;8.20;;
22606;SDS011;11470;20.968;105.834;2023-01-23T21:21:05;15.50;;;8.70;;
22606;SDS011;11470;20.968;105.834;2023-01-23T21:26:11;17.70;;;9.75;;
22606;SDS011;11470;20.968;105.834;2023-01-23T21:31:24;12.83;;;8.33;;
22606;SDS011;11470;20.968;105.834;2023-01-23T21:36:30;14.18;;;8.10;;
22606;SDS011;11470;20.968;105.834;2023-01-23T21:41:35;15.93;;;8.75;;
22606;SDS011;11470;20.968;105.834;2023-01-23T21:46:41;12.73;;;7.80;;
22606;SDS011;11470;20.968;105.834;2023-01-23T21:51:47;16.95;;;8.10;;
22606;SDS011;11470;20.968;105.834;2023-01-23T21:56:53;10.77;;;6.77;;
22606;SDS011;11470;20.968;105.834;2023-01-23T22:01:58;16.13;;;8.43;;
22606;SDS011;11470;20.968;105.834;2023-01-23T22:07:04;16.67;;;8.80;;
22606;SDS011;11470;20.968;105.834;2023-01-23T22:12:09;12.38;;;7.05;;
22606;SDS011;11470;20.968;105.834;2023-01-23T22:17:15;16.60;;;9.80;;
22606;SDS011;11470;20.968;105.834;2023-01-23T22:22:20;17.48;;;9.18;;
22606;SDS011;11470;20.968;105.834;2023-01-23T22:27:26;14.80;;;7.95;;
22606;SDS011;11470;20.968;105.834;2023-01-23T22:32:32;15.17;;;7.37;;
22606;SDS011;11470;20.968;105.834;2023-01-23T22:37:38;18.02;;;9.95;;
22606;SDS011;11470;20.968;105.834;2023-01-23T22:47:49;33.92;;;16.88;;
22606;SDS011;11470;20.968;105.834;2023-01-23T22:52:55;13.13;;;7.35;;
22606;SDS011;11470;20.968;105.834;2023-01-23T22:58:01;28.97;;;15.70;;
22606;SDS011;11470;20.968;105.834;2023-01-23T23:03:06;14.53;;;8.07;;
22606;SDS011;11470;20.968;105.834;2023-01-23T23:08:12;16.57;;;9.13;;
22606;SDS011;11470;20.968;105.834;2023-01-23T23:13:18;18.20;;;7.72;;
22606;SDS011;11470;20.968;105.834;2023-01-23T23:18:23;24.67;;;13.45;;
22606;SDS011;11470;20.968;105.834;2023-01-23T23:23:29;17.10;;;8.10;;
22606;SDS011;11470;20.968;105.834;2023-01-23T23:28:35;19.40;;;10.27;;
22606;SDS011;11470;20.968;105.834;2023-01-23T23:33:41;18.05;;;7.97;;
22606;SDS011;11470;20.968;105.834;2023-01-23T23:38:47;14.38;;;7.07;;
22606;SDS011;11470;20.968;105.834;2023-01-23T23:43:52;16.02;;;8.57;;
22606;SDS011;11470;20.968;105.834;2023-01-23T23:48:58;15.57;;;7.70;;
22606;SDS011;11470;20.968;105.834;2023-01-23T23:54:03;20.00;;;10.45;;
22606;SDS011;11470;20.968;105.834;2023-01-23T23:59:13;20.63;;;10.93;;
